Terminal Aerodrome Forecast
Issued by NWS Cleveland, OH

Home | Current Version | Previous Version | Text Only | Print | Product List | Glossary On
Versions: 1 2 3 4 5 6 7 8 9 10 11 12 13 14 15 16 17 18 19 20 21 22 23 24 25 26
000
FTUS41 KCLE 190400 AAA
TAFCLE
TAF AMD
KCLE 190422Z 1904/2006 27006KT 5SM -FZDZSN BR BKN009 OVC010
      TEMPO 1908/1910 SCT009 OVC010
     FM191000 28006KT 6SM -SN OVC012
     FM191300 32006KT P6SM OVC012
     FM200000 30005KT P6SM BKN020
     FM200400 VRB03KT P6SM OVC015=

USA.gov is the U.S. government's official web portal to all federal, state and local government web resources and services.